createdAt,value
2022-11-16T00:02:35.813Z,5.50
2022-11-16T00:06:37.747Z,7.35
2022-11-16T00:10:40.869Z,6.75
2022-11-16T00:14:42.270Z,5.95
2022-11-16T00:18:44.486Z,5.47
2022-11-16T00:22:45.954Z,6.57
2022-11-16T00:26:48.032Z,8.52
2022-11-16T00:30:58.189Z,8.18
2022-11-16T00:34:59.622Z,6.80
2022-11-16T00:39:01.085Z,9.95
2022-11-16T00:43:02.471Z,8.15
2022-11-16T00:47:04.184Z,6.90
2022-11-16T00:51:05.866Z,6.95
2022-11-16T00:55:07.959Z,8.25
2022-11-16T00:59:09.593Z,8.27
2022-11-16T01:03:11.373Z,7.50
2022-11-16T01:07:12.896Z,7.50
2022-11-16T01:11:34.573Z,6.68
2022-11-16T01:15:36.878Z,7.85
2022-11-16T01:19:39.061Z,7.10
2022-11-16T01:23:40.510Z,5.97
2022-11-16T01:27:42.985Z,8.73
2022-11-16T01:31:44.481Z,7.63
2022-11-16T01:35:46.085Z,6.93
2022-11-16T01:39:49.654Z,7.82
2022-11-16T01:43:58.302Z,6.45
2022-11-16T01:47:59.852Z,9.40
2022-11-16T01:52:05.041Z,6.97
2022-11-16T01:56:08.387Z,6.38
2022-11-16T02:00:14.537Z,6.97
2022-11-16T02:04:15.978Z,6.47
2022-11-16T02:09:08.690Z,7.15
2022-11-16T02:13:28.816Z,8.65
2022-11-16T02:17:39.320Z,4.82
2022-11-16T02:21:50.223Z,6.30
2022-11-16T02:26:29.700Z,5.20
2022-11-16T02:30:31.433Z,7.55
2022-11-16T02:34:37.800Z,6.43
2022-11-16T02:38:43.087Z,7.50
2022-11-16T02:42:52.797Z,6.28
2022-11-16T02:46:58.696Z,5.97
2022-11-16T02:51:00.215Z,9.63
2022-11-16T02:55:01.632Z,5.20
2022-11-16T02:59:03.250Z,5.00
2022-11-16T03:03:28.533Z,6.32
2022-11-16T03:07:33.492Z,11.07
2022-11-16T03:11:55.341Z,5.07
2022-11-16T03:15:57.469Z,4.80
2022-11-16T03:20:14.411Z,6.80
2022-11-16T03:24:16.409Z,5.47
2022-11-16T03:28:23.764Z,4.55
2022-11-16T03:32:46.702Z,6.05
2022-11-16T03:36:50.035Z,4.55
2022-11-16T03:40:52.248Z,5.13
2022-11-16T03:44:54.272Z,5.25
2022-11-16T03:48:58.042Z,4.35
2022-11-16T03:52:59.888Z,4.07
2022-11-16T03:57:01.502Z,8.20
2022-11-16T04:01:03.852Z,4.68
2022-11-16T04:05:24.384Z,4.80
2022-11-16T04:09:44.436Z,4.07
2022-11-16T04:14:09.119Z,2.95
2022-11-16T04:18:29.336Z,6.75
2022-11-16T04:23:01.356Z,2.88
2022-11-16T04:27:25.319Z,4.22
2022-11-16T04:31:45.670Z,4.93
2022-11-16T04:36:05.846Z,4.90
2022-11-16T04:40:08.532Z,4.22
2022-11-16T04:44:10.135Z,4.22
2022-11-16T04:48:12.231Z,5.38
2022-11-16T04:52:13.684Z,4.68
2022-11-16T04:56:15.189Z,4.32
2022-11-16T05:00:17.384Z,4.38
2022-11-16T05:04:19.380Z,5.00
2022-11-16T05:08:20.903Z,4.75
2022-11-16T05:12:24.514Z,5.38
2022-11-16T05:16:26.171Z,4.40
2022-11-16T05:20:46.453Z,4.30
2022-11-16T05:24:48.082Z,5.43
2022-11-16T05:28:49.558Z,2.95
2022-11-16T05:32:51.071Z,4.03
2022-11-16T05:36:52.595Z,3.55
2022-11-16T05:40:54.702Z,3.10
2022-11-16T05:44:56.304Z,4.05
2022-11-16T05:48:57.776Z,3.92
2022-11-16T05:53:00.702Z,5.82
2022-11-16T05:57:02.296Z,4.30
2022-11-16T06:01:04.326Z,3.85
2022-11-16T06:05:05.967Z,4.18
2022-11-16T06:09:09.686Z,3.22
2022-11-16T06:13:11.137Z,4.68
2022-11-16T06:17:14.715Z,6.47
2022-11-16T06:21:18.384Z,8.70
2022-11-16T06:25:20.215Z,6.38
2022-11-16T06:29:21.813Z,5.25
2022-11-16T06:33:23.872Z,7.85
2022-11-16T06:37:25.811Z,8.07
2022-11-16T06:41:27.315Z,5.22
2022-11-16T06:45:29.777Z,5.78
2022-11-16T06:49:31.266Z,5.00
2022-11-16T06:53:32.937Z,4.65
2022-11-16T06:57:35.859Z,5.20
2022-11-16T07:01:38.608Z,5.18
2022-11-16T07:05:42.087Z,6.35
2022-11-16T07:09:45.033Z,3.92
2022-11-16T07:13:46.848Z,4.65
2022-11-16T07:17:48.272Z,4.00
2022-11-16T07:21:49.717Z,5.10
2022-11-16T07:25:51.222Z,2.97
2022-11-16T07:29:52.776Z,5.40
2022-11-16T07:33:54.494Z,2.50
2022-11-16T07:37:55.908Z,2.28
2022-11-16T07:41:57.582Z,3.42
2022-11-16T07:46:44.829Z,2.47
2022-11-16T07:50:27.504Z,1.77
2022-11-16T07:54:29.080Z,2.53
2022-11-16T07:58:33.525Z,1.10
2022-11-16T08:02:35.362Z,1.98
2022-11-16T08:06:37.179Z,1.23
2022-11-16T08:10:39.126Z,1.95
2022-11-16T08:14:40.689Z,2.67
2022-11-16T08:18:42.684Z,2.53
2022-11-16T08:22:45.194Z,3.92
2022-11-16T08:26:46.671Z,1.65
2022-11-16T08:30:53.660Z,1.83
2022-11-16T08:34:56.710Z,5.85
2022-11-16T08:38:58.347Z,3.35
2022-11-16T08:43:00.013Z,1.63
2022-11-16T08:47:01.490Z,1.92
2022-11-16T08:51:17.443Z,3.05
2022-11-16T08:55:20.387Z,3.03
2022-11-16T08:59:22.025Z,1.35
2022-11-16T09:03:23.594Z,1.27
2022-11-16T09:07:25.367Z,1.08
2022-11-16T09:11:27.253Z,3.03
2022-11-16T09:15:28.872Z,2.20
2022-11-16T09:19:30.414Z,20.27
2022-11-16T09:23:32.032Z,1.67
2022-11-16T09:27:33.665Z,3.75
2022-11-16T09:31:37.231Z,1.60
2022-11-16T09:35:39.210Z,3.90
2022-11-16T09:39:40.814Z,1.95
2022-11-16T09:44:06.306Z,3.25
2022-11-16T09:48:12.385Z,1.88
2022-11-16T09:52:38.694Z,0.88
2022-11-16T09:56:42.053Z,2.17
2022-11-16T10:00:47.902Z,1.90
2022-11-16T10:05:12.263Z,2.90
2022-11-16T10:09:14.111Z,2.83
2022-11-16T10:13:42.763Z,2.97
2022-11-16T10:18:06.869Z,2.60
2022-11-16T10:22:17.891Z,2.80
2022-11-16T10:26:31.278Z,2.63
2022-11-16T10:30:41.965Z,1.10
2022-11-16T10:34:51.345Z,6.15
2022-11-16T10:38:54.396Z,2.20
2022-11-16T10:43:06.000Z,5.80
2022-11-16T10:47:34.931Z,4.47
2022-11-16T10:51:36.414Z,3.00
2022-11-16T10:55:37.904Z,1.80
2022-11-16T10:59:50.212Z,2.15
2022-11-16T11:03:51.686Z,2.63
2022-11-16T11:08:07.537Z,1.48
2022-11-16T11:12:31.046Z,4.28
2022-11-16T11:16:32.793Z,3.67
2022-11-16T11:20:34.282Z,5.60
2022-11-16T11:24:44.898Z,2.60
2022-11-16T11:28:48.173Z,2.90
2022-11-16T11:32:50.656Z,1.45
2022-11-16T11:37:01.239Z,2.05
2022-11-16T11:41:05.328Z,3.30
2022-11-16T11:45:09.469Z,2.15
2022-11-16T11:49:17.180Z,1.77
2022-11-16T11:53:33.953Z,4.97
2022-11-16T11:57:40.331Z,1.30
2022-11-16T12:02:00.083Z,1.35
2022-11-16T12:06:08.628Z,3.33
2022-11-16T12:10:36.172Z,3.97
2022-11-16T12:14:49.661Z,3.80
2022-11-16T12:19:00.518Z,1.23
2022-11-16T12:23:10.905Z,4.55
2022-11-16T12:28:09.552Z,2.95
2022-11-16T12:32:29.172Z,4.85
2022-11-16T12:36:49.453Z,2.42
2022-11-16T12:41:24.920Z,0.88
2022-11-16T12:45:32.792Z,2.22
2022-11-16T12:49:52.656Z,1.70
2022-11-16T12:54:10.053Z,2.47
2022-11-16T12:58:22.534Z,3.88
2022-11-16T13:02:52.494Z,2.55
2022-11-16T13:07:05.324Z,2.08
2022-11-16T13:11:32.311Z,2.88
2022-11-16T13:15:37.300Z,2.75
2022-11-16T13:19:40.209Z,2.45
2022-11-16T13:23:53.382Z,3.35
2022-11-16T13:28:13.399Z,1.92
2022-11-16T13:32:28.246Z,6.13
2022-11-16T13:36:32.701Z,4.65
2022-11-16T13:40:34.640Z,3.13
2022-11-16T13:44:36.174Z,2.95
2022-11-16T13:48:38.626Z,1.33
2022-11-16T13:53:46.355Z,3.63
2022-11-16T13:57:32.991Z,3.33
2022-11-16T14:01:57.701Z,5.20
2022-11-16T14:05:59.217Z,7.40
2022-11-16T14:10:01.431Z,4.30
2022-11-16T14:14:13.739Z,1.45
2022-11-16T14:18:15.275Z,2.65
2022-11-16T14:22:31.752Z,4.30
2022-11-16T14:26:56.383Z,2.30
2022-11-16T14:31:20.036Z,0.88
2022-11-16T14:35:27.576Z,3.67
2022-11-16T14:39:32.070Z,2.25
2022-11-16T14:43:46.541Z,3.88
2022-11-16T14:47:48.717Z,4.40
2022-11-16T14:51:54.035Z,5.15
2022-11-16T14:56:06.880Z,4.75
2022-11-16T15:00:25.852Z,6.55
2022-11-16T15:04:27.719Z,3.08
2022-11-16T15:08:42.317Z,7.32
2022-11-16T15:12:46.252Z,4.10
2022-11-16T15:17:07.258Z,5.53
2022-11-16T15:21:22.557Z,3.95
2022-11-16T15:25:30.686Z,5.00
2022-11-16T15:29:32.438Z,6.50
2022-11-16T15:33:41.951Z,6.28
2022-11-16T15:37:43.446Z,6.97
2022-11-16T15:41:46.211Z,7.68
2022-11-16T15:45:48.686Z,3.35
2022-11-16T15:49:53.163Z,5.63
2022-11-16T15:54:13.953Z,4.05
2022-11-16T15:58:29.622Z,7.10
2022-11-16T16:02:31.849Z,3.97
2022-11-16T16:06:45.598Z,5.40
2022-11-16T16:11:20.355Z,4.13
2022-11-16T16:15:33.942Z,4.35
2022-11-16T16:19:43.632Z,11.40
2022-11-16T16:23:53.810Z,5.75
2022-11-16T16:27:55.725Z,7.88
2022-11-16T16:31:57.335Z,8.32
2022-11-16T16:35:58.940Z,15.35
2022-11-16T16:40:00.596Z,15.77
2022-11-16T16:44:02.119Z,16.83
2022-11-16T16:48:03.895Z,11.20
2022-11-16T16:52:06.781Z,8.90
2022-11-16T16:56:15.725Z,7.72
2022-11-16T17:00:20.078Z,8.40
2022-11-16T17:04:21.814Z,9.82
2022-11-16T17:08:23.249Z,7.05
2022-11-16T17:12:25.058Z,5.97
2022-11-16T17:16:26.621Z,5.55
2022-11-16T17:20:28.325Z,5.97
2022-11-16T17:24:29.916Z,5.20
2022-11-16T17:28:31.777Z,7.38
2022-11-16T17:32:33.319Z,12.40
2022-11-16T17:36:34.807Z,12.32
2022-11-16T17:40:36.776Z,12.15
2022-11-16T17:44:38.370Z,16.27
2022-11-16T17:48:43.359Z,13.02
2022-11-16T17:52:44.817Z,11.57
2022-11-16T17:56:46.210Z,11.15
2022-11-16T18:00:51.802Z,11.75
2022-11-16T18:04:53.504Z,9.98
2022-11-16T18:08:54.942Z,10.73
2022-11-16T18:12:56.696Z,10.02
2022-11-16T18:16:58.211Z,9.82
2022-11-16T18:21:02.865Z,5.50
2022-11-16T18:25:04.594Z,4.85
2022-11-16T18:29:07.230Z,7.38
2022-11-16T18:33:08.775Z,6.53
2022-11-16T18:37:10.539Z,9.25
2022-11-16T18:41:11.962Z,14.25
2022-11-16T18:45:14.039Z,10.18
2022-11-16T18:49:15.965Z,7.97
2022-11-16T18:53:17.964Z,7.55
2022-11-16T18:57:19.838Z,9.68
2022-11-16T19:01:24.169Z,9.82
2022-11-16T19:05:25.797Z,9.90
2022-11-16T19:09:27.886Z,11.13
2022-11-16T19:13:29.450Z,14.60
2022-11-16T19:17:31.351Z,15.35
2022-11-16T19:21:32.875Z,10.18
2022-11-16T19:25:34.359Z,11.90
2022-11-16T19:29:36.856Z,13.90
2022-11-16T19:33:39.056Z,10.77
2022-11-16T19:37:40.870Z,10.32
2022-11-16T19:41:49.342Z,13.93
2022-11-16T19:45:51.208Z,14.02
2022-11-16T19:49:53.349Z,10.32
2022-11-16T19:53:56.807Z,9.60
2022-11-16T19:57:58.220Z,9.75
2022-11-16T20:01:59.685Z,11.43
2022-11-16T20:06:15.890Z,12.63
2022-11-16T20:10:17.733Z,15.45
2022-11-16T20:14:19.459Z,17.25
2022-11-16T20:18:20.972Z,13.88
2022-11-16T20:22:22.438Z,14.77
2022-11-16T20:26:25.705Z,17.58
2022-11-16T20:30:27.423Z,20.45
2022-11-16T20:34:29.139Z,21.20
2022-11-16T20:38:33.100Z,16.42
2022-11-16T20:42:36.327Z,16.08
2022-11-16T20:46:38.456Z,15.10
2022-11-16T20:50:39.946Z,12.75
2022-11-16T20:54:41.393Z,9.45
2022-11-16T20:58:43.163Z,9.55
2022-11-16T21:02:44.797Z,12.07
2022-11-16T21:06:47.284Z,12.93
2022-11-16T21:10:48.976Z,12.75
2022-11-16T21:14:50.744Z,15.73
2022-11-16T21:18:54.461Z,12.02
2022-11-16T21:22:55.978Z,8.77
2022-11-16T21:26:57.405Z,10.23
2022-11-16T21:31:00.885Z,14.52
2022-11-16T21:35:02.816Z,8.27
2022-11-16T21:39:04.409Z,11.48
2022-11-16T21:43:05.985Z,10.48
2022-11-16T21:47:09.250Z,12.80
2022-11-16T21:51:16.276Z,12.40
2022-11-16T21:55:17.713Z,8.50
2022-11-16T21:59:19.089Z,9.13
2022-11-16T22:03:20.715Z,10.55
2022-11-16T22:07:36.797Z,8.85
2022-11-16T22:11:38.343Z,15.48
2022-11-16T22:15:39.986Z,12.10
2022-11-16T22:19:41.378Z,10.85
2022-11-16T22:23:42.876Z,12.00
2022-11-16T22:28:13.756Z,8.23
2022-11-16T22:32:09.445Z,11.70
2022-11-16T22:36:11.129Z,11.50
2022-11-16T22:40:17.621Z,9.55
2022-11-16T22:44:19.427Z,9.50
2022-11-16T22:48:20.803Z,8.68
2022-11-16T22:52:22.393Z,12.90
2022-11-16T22:56:24.874Z,10.63
2022-11-16T23:00:26.512Z,8.35
2022-11-16T23:04:28.376Z,10.70
2022-11-16T23:08:30.202Z,8.68
2022-11-16T23:12:50.213Z,8.68
2022-11-16T23:16:52.412Z,8.02
2022-11-16T23:21:13.585Z,7.05
2022-11-16T23:25:33.890Z,10.88
2022-11-16T23:29:35.509Z,9.57
2022-11-16T23:33:46.104Z,11.95
2022-11-16T23:37:55.396Z,10.40
2022-11-16T23:42:15.411Z,15.70
2022-11-16T23:46:16.886Z,15.27
2022-11-16T23:50:18.380Z,11.40
2022-11-16T23:54:19.889Z,11.65
2022-11-16T23:58:21.675Z,12.63
